Cromford, United Kingdom
Current Conditions -  °F | °C
As of 1:20 AM on Friday 19 Dec 2014 (Local Time) from EGNX Reporting Station
Moderate Rain Moderate Rain  
Wind Chill: 11°   Ceiling: 1400
Heat Index: 11°   Visibility: 3mi
Dew Point:   Wind: 15mph
Humidity: 88%   Direction: 300°WNW
Pressure: 29.68"   Gusts: NA
Location:  53.11°N, 1.56°W
Report Text: EGNX 190120Z 30013KT 260V330 5000 RADZ FEW004 SCT006 BKN014 11/09 Q1005
Loading
Personal Weather Stations






























Interactive Weather Map New forecast layout! Learn more

10-Day Weather Forecast

Advertisements
Track Severe Weather on mobile